Time;durP1;ratioP1;P1;durP2;ratioP2;P2;SDS_P1;SDS_P2;PMS_P1;PMS_P2;Temp;Humidity;BMP_temperature;BMP_pressure;BME280_temperature;BME280_humidity;BME280_pressure;Samples;Min_cycle;Max_cycle;Signal;HPM_P1;HPM_P2
2022/09/01 00:01:26;;;;;;;2.83;1.55;;;;;;;22.27;45.74;102343.06;4860945;29;20507;-79
2022/09/01 00:03:53;;;;;;;2.72;1.40;;;;;;;22.24;45.71;102338.72;4873783;29;20135;-80
2022/09/01 00:06:22;;;;;;;2.45;1.42;;;;;;;22.28;45.91;102334.34;4876275;29;20053;-80
2022/09/01 00:08:54;;;;;;;3.90;1.63;;;;;;;22.26;45.86;102329.09;4844572;29;20049;-80
2022/09/01 00:11:21;;;;;;;2.95;1.60;;;;;;;22.28;45.60;102334.34;4876012;29;20519;-80
2022/09/01 00:13:48;;;;;;;2.90;1.30;;;;;;;22.28;45.77;102334.34;4874367;29;20059;-80
2022/09/01 00:16:15;;;;;;;2.70;1.40;;;;;;;22.30;45.72;102325.59;4883968;29;20132;-80
2022/09/01 00:21:08;;;;;;;3.00;1.48;;;;;;;22.27;45.72;102328.19;4876056;29;20072;-80
2022/09/01 00:23:34;;;;;;;4.30;1.38;;;;;;;22.28;45.65;102327.34;4877409;29;20057;-80
2022/09/01 00:25:59;;;;;;;4.40;1.60;;;;;;;22.27;45.72;102317.72;4852585;29;20060;-80
2022/09/01 00:28:25;;;;;;;2.42;1.35;;;;;;;22.25;45.92;102322.09;4839995;29;20061;-80
2022/09/01 00:30:50;;;;;;;3.92;1.60;;;;;;;22.21;45.82;102315.13;4876032;29;20080;-80
2022/09/01 00:33:16;;;;;;;2.97;1.48;;;;;;;22.23;45.81;102325.63;4878117;29;20408;-80
2022/09/01 00:35:41;;;;;;;3.28;1.40;;;;;;;22.24;45.76;102319.50;4877746;29;20117;-81
2022/09/01 00:38:06;;;;;;;1.80;1.20;;;;;;;22.23;45.94;102318.59;4861018;29;20132;-80
2022/09/01 00:40:32;;;;;;;3.00;1.55;;;;;;;22.25;45.80;102313.38;4839779;29;20305;-80
2022/09/01 00:42:59;;;;;;;4.07;1.48;;;;;;;22.25;45.72;102305.50;4878350;29;20135;-80
2022/09/01 00:45:25;;;;;;;2.42;1.23;;;;;;;22.23;45.84;102307.25;4845569;29;20113;-80
2022/09/01 00:47:50;;;;;;;2.95;1.30;;;;;;;22.22;45.61;102309.00;4881911;29;20057;-81
2022/09/01 00:50:17;;;;;;;2.20;1.30;;;;;;;22.23;45.70;102300.25;4883639;29;20057;-80
2022/09/01 00:52:52;;;;;;;3.33;1.50;;;;;;;22.19;45.83;102302.00;4868090;29;20059;-80
2022/09/01 00:55:24;;;;;;;2.58;1.23;;;;;;;22.22;45.84;102302.88;4864795;29;20523;-80
2022/09/01 00:57:49;;;;;;;3.20;1.23;;;;;;;22.22;45.90;102302.88;4887284;29;20052;-80
2022/09/01 01:00:20;;;;;;;2.63;1.15;;;;;;;22.19;45.87;102301.16;4840414;29;20053;-80
2022/09/01 01:02:47;;;;;;;2.70;1.40;;;;;;;22.22;45.89;102303.78;4863824;29;20068;-80
2022/09/01 01:05:14;;;;;;;5.03;1.50;;;;;;;22.21;45.85;102295.88;4849535;29;20049;-80
2022/09/01 01:10:09;;;;;;;2.28;1.10;;;;;;;22.17;45.92;102295.91;4855996;29;20814;-80
2022/09/01 01:12:39;;;;;;;2.63;0.90;;;;;;;22.17;45.95;102301.16;4843347;29;20189;-80
2022/09/01 01:15:06;;;;;;;2.40;1.13;;;;;;;22.18;45.96;102296.75;4879890;29;20065;-80
2022/09/01 01:17:32;;;;;;;3.97;1.25;;;;;;;22.16;46.17;102295.91;4881901;29;20079;-80
2022/09/01 01:25:39;;;;;;;3.65;1.40;;;;;;;22.16;45.92;102286.28;4884548;29;20060;-81
2022/09/01 01:28:10;;;;;;;3.42;1.25;;;;;;;22.15;45.97;102289.78;4880310;29;20049;-79
2022/09/01 01:30:38;;;;;;;3.45;1.48;;;;;;;22.14;45.82;102288.03;4883464;29;20140;-80
2022/09/01 01:33:05;;;;;;;2.92;1.42;;;;;;;22.12;45.77;102287.19;4879806;29;20527;-79
2022/09/01 01:35:32;;;;;;;2.35;1.27;;;;;;;22.14;46.00;102287.16;4884937;29;20507;-79
2022/09/01 01:37:59;;;;;;;3.20;1.30;;;;;;;22.13;45.90;102288.94;4856778;29;20049;-79
2022/09/01 01:40:27;;;;;;;1.95;1.05;;;;;;;22.12;45.87;102287.19;4887290;29;20053;-79
2022/09/01 01:42:53;;;;;;;5.15;1.42;;;;;;;22.14;45.94;102279.31;4840847;29;20132;-77
2022/09/01 01:45:21;;;;;;;3.05;1.20;;;;;;;22.12;45.63;102281.97;4879055;29;20144;-79
2022/09/01 01:47:55;;;;;;;3.67;1.23;;;;;;;22.12;45.95;102281.97;4878164;29;20088;-78
2022/09/01 01:50:24;;;;;;;2.58;1.10;;;;;;;22.11;45.88;102280.19;4879366;29;20144;-79
2022/09/01 01:52:49;;;;;;;2.38;1.10;;;;;;;22.11;46.00;102285.44;4885316;29;20076;-82
2022/09/01 01:55:18;;;;;;;1.67;1.10;;;;;;;22.10;45.98;102282.81;4872250;29;20052;-81
2022/09/01 01:57:47;;;;;;;3.65;1.17;;;;;;;22.11;46.09;102284.56;4887064;29;20056;-82
2022/09/01 02:00:18;;;;;;;2.53;1.15;;;;;;;22.12;45.79;102291.56;4887276;29;20057;-81
2022/09/01 02:02:53;;;;;;;1.85;1.10;;;;;;;22.08;46.19;102287.19;4887476;29;20045;-81
2022/09/01 02:05:25;;;;;;;2.00;1.20;;;;;;;22.10;45.95;102277.56;4849942;29;20040;-81
2022/09/01 02:07:58;;;;;;;1.92;1.00;;;;;;;22.08;45.94;102281.94;4869451;29;20057;-81
2022/09/01 02:10:30;;;;;;;2.80;1.15;;;;;;;22.10;46.05;102280.19;4869772;29;20053;-81
2022/09/01 02:13:02;;;;;;;3.90;1.40;;;;;;;22.07;45.98;102278.47;4883322;29;20053;-81
2022/09/01 02:15:28;;;;;;;1.85;1.10;;;;;;;22.09;46.03;102276.72;4886998;29;20049;-82
2022/09/01 02:17:55;;;;;;;2.38;1.08;;;;;;;22.08;46.12;102288.09;4867913;29;20124;-81
2022/09/01 02:20:23;;;;;;;3.35;1.20;;;;;;;22.09;46.07;102275.84;4854035;29;20051;-81
2022/09/01 02:22:50;;;;;;;3.25;1.05;;;;;;;22.08;46.11;102280.22;4873209;29;20077;-81
2022/09/01 02:25:19;;;;;;;3.40;1.20;;;;;;;22.07;45.95;102280.22;4887358;29;20522;-82
2022/09/01 02:27:48;;;;;;;2.33;1.20;;;;;;;22.07;46.08;102277.59;4891216;29;20057;-82
2022/09/01 02:30:13;;;;;;;1.83;0.85;;;;;;;22.05;45.80;102277.59;4853664;29;20045;-82
2022/09/01 02:32:40;;;;;;;2.20;1.10;;;;;;;22.06;46.05;102279.38;4853762;29;20073;-82
2022/09/01 02:35:08;;;;;;;1.65;1.00;;;;;;;22.05;46.07;102274.97;4891647;29;20060;-82
2022/09/01 02:37:35;;;;;;;2.00;1.10;;;;;;;22.06;45.99;102276.75;4893442;29;20392;-81
2022/09/01 02:40:01;;;;;;;1.85;1.20;;;;;;;22.08;46.09;102280.22;4849330;29;20057;-81
2022/09/01 02:42:28;;;;;;;4.18;1.30;;;;;;;22.08;46.02;102276.72;4876058;29;20053;-81
2022/09/01 02:44:54;;;;;;;2.67;1.25;;;;;;;22.07;45.90;102273.22;4888993;29;20504;-81
2022/09/01 02:47:22;;;;;;;2.67;1.02;;;;;;;22.07;45.92;102274.97;4893405;29;20053;-81
2022/09/01 02:49:50;;;;;;;1.98;1.10;;;;;;;22.05;45.87;102264.50;4867672;29;20061;-82
2022/09/01 02:52:19;;;;;;;1.65;1.00;;;;;;;22.04;46.14;102275.00;4890719;29;20116;-82
2022/09/01 02:54:47;;;;;;;3.13;1.00;;;;;;;22.03;46.08;102262.78;4890298;29;20060;-81
2022/09/01 02:57:13;;;;;;;2.47;1.23;;;;;;;22.04;46.19;102264.53;4889507;29;20120;-82
2022/09/01 02:59:40;;;;;;;3.22;1.35;;;;;;;22.01;45.98;102261.91;4891781;29;20526;-82
2022/09/01 03:02:07;;;;;;;1.90;1.15;;;;;;;21.99;46.16;102259.28;4892797;29;20048;-81
2022/09/01 03:04:33;;;;;;;3.33;1.10;;;;;;;21.93;46.28;102264.59;4890759;29;20502;-79
2022/09/01 03:07:00;;;;;;;2.10;1.10;;;;;;;21.89;46.29;102258.47;4836541;29;20481;-78
2022/09/01 03:09:25;;;;;;;2.33;1.27;;;;;;;21.90;46.49;102262.81;4838889;29;20041;-79
2022/09/01 03:11:52;;;;;;;2.20;1.27;;;;;;;21.90;46.15;102262.81;4874938;29;20476;-78
2022/09/01 03:14:19;;;;;;;5.38;1.30;;;;;;;21.86;46.43;102263.75;4862208;29;20121;-79
2022/09/01 03:16:44;;;;;;;2.28;1.20;;;;;;;21.86;46.22;102268.09;4861839;29;20056;-79
2022/09/01 03:19:11;;;;;;;3.38;1.50;;;;;;;21.77;46.48;102258.53;4856283;29;20081;-79
2022/09/01 03:21:39;;;;;;;2.03;1.25;;;;;;;21.77;46.58;102263.78;4849430;29;20582;-79
2022/09/01 03:24:09;;;;;;;2.45;1.00;;;;;;;21.79;46.32;102267.25;4886048;29;20061;-79
2022/09/01 03:26:35;;;;;;;4.35;1.15;;;;;;;21.79;46.22;102272.50;4889364;29;20068;-79
2022/09/01 03:29:01;;;;;;;3.63;1.20;;;;;;;21.74;46.35;102261.16;4862939;29;20049;-81
2022/09/01 03:31:27;;;;;;;3.05;1.10;;;;;;;21.74;46.16;102259.41;4896273;29;20105;-83
2022/09/01 03:33:55;;;;;;;1.60;1.00;;;;;;;21.77;46.39;102258.53;4892730;29;20060;-81
2022/09/01 03:36:21;;;;;;;3.08;1.20;;;;;;;21.76;46.46;102257.66;4896399;29;20055;-82
2022/09/01 03:38:48;;;;;;;3.55;1.13;;;;;;;21.72;46.63;102261.16;4855940;29;20056;-82
2022/09/01 03:41:17;;;;;;;2.65;1.00;;;;;;;21.75;46.21;102255.94;4894718;29;20049;-82
2022/09/01 03:43:43;;;;;;;3.28;1.20;;;;;;;21.80;46.33;102252.41;4897621;29;20068;-82
2022/09/01 03:46:09;;;;;;;3.55;1.30;;;;;;;21.80;46.23;102252.41;4896013;29;20076;-82
2022/09/01 03:48:35;;;;;;;1.98;1.10;;;;;;;21.80;46.23;102236.66;4873056;29;20073;-82
2022/09/01 03:51:01;;;;;;;3.33;1.40;;;;;;;21.83;46.13;102245.41;4893835;29;20070;-82
2022/09/01 03:53:28;;;;;;;4.65;1.48;;;;;;;21.80;46.18;102240.19;4894226;29;20060;-81
2022/09/01 03:55:56;;;;;;;2.50;1.20;;;;;;;21.76;46.07;102236.69;4892105;29;20095;-83
2022/09/01 03:58:22;;;;;;;2.80;0.90;;;;;;;21.80;45.96;102240.19;4894957;29;20056;-82
2022/09/01 04:00:54;;;;;;;3.22;1.13;;;;;;;21.82;46.21;102237.53;4895277;29;20060;-81
2022/09/01 04:03:22;;;;;;;3.17;1.13;;;;;;;21.76;46.03;102228.84;4896236;29;20044;-82
2022/09/01 04:05:50;;;;;;;2.03;1.13;;;;;;;21.75;46.12;102232.34;4896314;29;20074;-80
2022/09/01 04:08:16;;;;;;;3.15;1.50;;;;;;;21.75;45.96;102232.34;4896170;29;20152;-81
2022/09/01 04:13:10;;;;;;;2.22;1.00;;;;;;;21.71;45.80;102235.88;4895913;29;20065;-83
2022/09/01 04:15:37;;;;;;;3.60;1.30;;;;;;;21.71;45.62;102225.38;4896668;29;20060;-82
2022/09/01 04:18:09;;;;;;;3.75;1.30;;;;;;;21.71;45.96;102235.88;4894387;29;20061;-82
2022/09/01 04:23:09;;;;;;;3.05;1.40;;;;;;;21.75;45.82;102224.50;4895204;29;20067;-81
2022/09/01 04:39:12;;;;;;;1.88;0.98;;;;;;;21.80;45.60;102242.81;4900918;29;20049;-81
2022/09/01 04:53:04;;;;;;;3.17;1.27;;;;;;;21.79;45.54;102235.81;5067780;23;20050;-83
2022/09/01 04:55:32;;;;;;;2.72;1.10;;;;;;;21.78;45.58;102247.19;4862905;29;20071;-83
2022/09/01 04:58:01;;;;;;;3.20;1.35;;;;;;;21.77;45.54;102237.56;4861308;29;20076;-83
2022/09/01 05:03:08;;;;;;;2.17;1.40;;;;;;;21.78;45.40;102239.31;4875554;29;20049;-82
2022/09/01 05:11:06;;;;;;;8.67;3.13;;;;;;;21.75;45.85;102236.69;2889062;29;20060;-81
2022/09/01 05:38:42;;;;;;;5.22;1.95;;;;;;;21.07;44.91;102247.38;4962361;23;20104;-83
2022/09/01 05:41:19;;;;;;;5.22;2.03;;;;;;;20.94;45.03;102249.13;4842517;29;20045;-83
2022/09/01 05:48:49;;;;;;;4.85;2.08;;;;;;;20.98;44.78;102255.25;4855060;29;20058;-82
2022/09/01 05:54:03;;;;;;;5.03;2.60;;;;;;;21.06;44.70;102250.00;4864955;29;20081;-83
2022/09/01 06:04:15;;;;;;;9.00;3.17;;;;;;;21.35;43.68;102256.03;4846696;29;20038;-83
2022/09/01 06:17:59;;;;;;;9.20;3.38;;;;;;;22.01;42.83;102249.66;5129268;28;20107;-82
2022/09/01 06:20:25;;;;;;;9.55;3.38;;;;;;;22.10;42.19;102249.63;5114815;28;20051;-82
2022/09/01 06:22:52;;;;;;;5.97;3.00;;;;;;;22.14;42.47;102248.72;5117419;28;20027;-83
2022/09/01 06:27:46;;;;;;;7.78;3.20;;;;;;;22.26;42.21;102257.44;5115244;28;20370;-82
2022/09/01 06:30:16;;;;;;;6.70;2.88;;;;;;;22.27;42.41;102251.28;5119961;28;20070;-82
2022/09/01 06:32:43;;;;;;;7.38;3.22;;;;;;;22.31;42.41;102251.25;5117617;28;20062;-84
2022/09/01 06:35:16;;;;;;;6.90;2.47;;;;;;;22.35;42.41;102252.97;5108177;28;20375;-83
2022/09/01 06:37:43;;;;;;;7.40;2.70;;;;;;;22.36;42.38;102254.75;5105651;28;20143;-82
2022/09/01 06:40:15;;;;;;;6.80;2.92;;;;;;;22.43;41.98;102259.91;5091516;28;20393;-82
2022/09/01 06:42:50;;;;;;;10.07;3.03;;;;;;;22.44;42.12;102256.41;5105397;28;20067;-81
2022/09/01 06:45:19;;;;;;;7.45;2.88;;;;;;;22.43;42.58;102257.28;5107918;28;20052;-83
2022/09/01 06:47:49;;;;;;;6.53;2.63;;;;;;;22.46;42.65;102259.91;5106752;28;20055;-82
2022/09/01 06:50:20;;;;;;;5.78;2.70;;;;;;;22.49;42.78;102265.13;5109597;28;20432;-83
2022/09/01 06:52:45;;;;;;;6.53;2.72;;;;;;;22.54;42.34;102256.34;5123582;28;21187;-83
2022/09/01 06:55:13;;;;;;;10.02;2.97;;;;;;;22.54;42.63;102261.59;5125432;28;20047;-83
2022/09/01 06:57:40;;;;;;;7.30;2.90;;;;;;;22.57;42.39;102264.19;5106334;28;20052;-84
2022/09/01 07:02:46;;;;;;;5.93;2.90;;;;;;;22.63;42.83;102265.91;5117164;28;20062;-83
2022/09/01 07:05:20;;;;;;;5.97;2.78;;;;;;;22.69;41.53;102264.94;5110280;28;20061;-83
2022/09/01 07:08:07;;;;;;;;;;;;;;;;;;;;;
2022/09/01 07:10:34;;;;;;;5.65;2.78;;;;;;;22.69;42.59;102265.84;5108092;28;20519;-84
2022/09/01 07:13:00;;;;;;;7.10;2.30;;;;;;;22.70;42.59;102262.31;5117900;28;20054;-82
2022/09/01 07:15:31;;;;;;;5.80;2.30;;;;;;;22.70;42.66;102269.34;5114153;28;20047;-83
2022/09/01 07:17:57;;;;;;;4.00;2.15;;;;;;;22.70;42.60;102262.31;5110081;28;20078;-84
2022/09/01 07:20:25;;;;;;;5.32;2.20;;;;;;;22.72;42.79;102265.81;5091625;28;20051;-83
2022/09/01 07:22:52;;;;;;;5.43;2.53;;;;;;;22.73;42.84;102266.66;5112144;28;20028;-83
2022/09/01 07:25:19;;;;;;;7.30;2.60;;;;;;;22.75;42.70;102268.41;5083193;28;20059;-85
2022/09/01 07:27:48;;;;;;;6.65;2.30;;;;;;;22.75;42.77;102268.41;5091752;28;20071;-83
2022/09/01 07:30:14;;;;;;;3.22;2.10;;;;;;;22.77;42.89;102273.63;5093828;28;20421;-82
2022/09/01 07:32:42;;;;;;;6.00;2.42;;;;;;;22.78;42.74;102271.00;5090784;28;20726;-85
2022/09/01 07:35:08;;;;;;;4.97;2.45;;;;;;;22.79;42.47;102269.25;5076558;28;20044;-83
2022/09/01 07:37:36;;;;;;;6.20;2.30;;;;;;;22.80;42.71;102274.50;5090980;28;20056;-81
2022/09/01 07:40:09;;;;;;;3.85;1.95;;;;;;;22.80;42.69;102274.50;5094059;28;20036;-83
2022/09/01 07:42:37;;;;;;;7.65;2.30;;;;;;;22.80;42.71;102268.38;5090188;28;20056;-83
2022/09/01 07:45:07;;;;;;;5.78;1.92;;;;;;;22.80;42.79;102273.63;5092730;28;20056;-84
2022/09/01 07:47:35;;;;;;;5.35;2.03;;;;;;;22.80;42.59;102271.88;5057987;28;20086;-83
2022/09/01 07:50:07;;;;;;;4.43;2.08;;;;;;;22.85;42.84;102278.84;5094011;28;20393;-82
2022/09/01 07:52:35;;;;;;;4.25;2.20;;;;;;;22.85;42.61;102278.84;5090306;28;20047;-84
2022/09/01 07:55:02;;;;;;;6.72;2.28;;;;;;;22.85;42.51;102284.09;5097526;28;20048;-83
2022/09/01 07:57:28;;;;;;;5.05;2.03;;;;;;;22.85;42.65;102279.69;5105260;28;20068;-85
2022/09/01 07:59:54;;;;;;;5.28;2.10;;;;;;;22.84;42.86;102269.19;5074765;28;20491;-84
2022/09/01 08:04:45;;;;;;;3.50;2.10;;;;;;;22.87;42.84;102277.06;5111593;28;20401;-83
2022/09/01 08:07:10;;;;;;;3.42;1.90;;;;;;;22.86;42.82;102270.94;5112631;28;20043;-82
2022/09/01 08:09:37;;;;;;;3.55;2.05;;;;;;;22.87;42.69;102279.69;5110138;28;20060;-82
2022/09/01 08:12:05;;;;;;;4.20;1.83;;;;;;;22.86;43.05;102276.19;5114882;28;20047;-83
2022/09/01 08:14:31;;;;;;;3.88;2.00;;;;;;;22.87;42.83;102280.56;5110139;28;20062;-84
2022/09/01 08:16:56;;;;;;;4.72;2.05;;;;;;;22.88;42.85;102277.03;5091916;28;20490;-84
2022/09/01 08:19:21;;;;;;;3.78;1.55;;;;;;;22.87;43.17;102284.94;5091385;28;20094;-82
2022/09/01 08:21:47;;;;;;;3.50;1.70;;;;;;;22.86;43.15;102283.19;5087350;28;20127;-84
2022/09/01 08:24:13;;;;;;;3.33;1.80;;;;;;;22.87;43.11;102284.94;5103506;28;20055;-84
2022/09/01 08:26:39;;;;;;;5.38;1.80;;;;;;;22.87;43.07;102284.94;5075028;28;20042;-82
2022/09/01 08:29:04;;;;;;;3.85;1.75;;;;;;;22.87;43.11;102288.44;5095039;28;20481;-84
2022/09/01 08:31:31;;;;;;;5.85;1.88;;;;;;;22.86;43.21;102284.06;5091212;28;20098;-83
2022/09/01 08:33:59;;;;;;;3.22;1.83;;;;;;;22.85;43.25;102279.69;5092322;28;20113;-80
2022/09/01 08:36:25;;;;;;;3.78;1.73;;;;;;;22.87;43.11;102282.31;5090507;28;20052;-80
2022/09/01 08:38:51;;;;;;;4.75;1.77;;;;;;;22.86;43.19;102281.44;5081519;28;20051;-81
2022/09/01 08:43:59;;;;;;;3.65;1.70;;;;;;;22.86;43.07;102280.56;5112241;28;20052;-83
2022/09/01 08:46:33;;;;;;;2.90;1.70;;;;;;;22.86;42.94;102277.94;5111569;28;20405;-83
2022/09/01 08:49:06;;;;;;;4.30;1.80;;;;;;;22.86;43.04;102275.31;5110697;28;20035;-84
2022/09/01 08:51:38;;;;;;;2.30;1.50;;;;;;;22.85;42.92;102274.44;5109172;28;20386;-84
2022/09/01 08:54:10;;;;;;;3.05;1.65;;;;;;;22.84;42.87;102283.19;5111573;28;20040;-82
2022/09/01 08:56:36;;;;;;;2.40;1.67;;;;;;;22.84;42.97;102275.31;5109555;28;20169;-83
2022/09/01 08:59:05;;;;;;;3.65;1.50;;;;;;;22.84;42.91;102277.09;5073779;28;20036;-83
2022/09/01 09:01:59;;;;;;;2.45;1.35;;;;;;;22.84;43.02;102274.47;5106702;28;20048;-84
2022/09/01 09:05:03;;;;;;;4.55;1.65;;;;;;;22.83;43.16;102272.72;5095590;28;20366;-83
2022/09/01 09:07:47;;;;;;;5.88;1.48;;;;;;;22.83;42.86;102270.97;5096657;28;20048;-84
2022/09/01 09:13:19;;;;;;;4.67;1.60;;;;;;;22.83;42.74;102270.09;5109745;28;20048;-83
2022/09/01 09:15:58;;;;;;;2.63;1.45;;;;;;;22.80;42.91;102263.13;5109829;28;21116;-85
2022/09/01 09:18:30;;;;;;;2.42;1.33;;;;;;;22.79;42.58;102264.00;5120170;28;20040;-84
2022/09/01 09:21:03;;;;;;;2.17;1.40;;;;;;;22.78;43.12;102247.41;5115461;28;20051;-83
2022/09/01 09:23:38;;;;;;;2.85;1.33;;;;;;;22.77;42.69;102250.88;5108303;28;20051;-84
2022/09/01 09:26:03;;;;;;;2.13;1.30;;;;;;;22.77;43.14;102248.25;5110533;28;20132;-84
2022/09/01 09:28:29;;;;;;;2.35;1.40;;;;;;;22.76;42.66;102249.16;5090402;28;20436;-85
2022/09/01 09:33:45;;;;;;;2.20;1.40;;;;;;;22.77;43.04;102250.88;5110687;28;21103;-83
2022/09/01 09:38:45;;;;;;;3.00;1.27;;;;;;;22.75;42.55;102247.41;5110910;28;20780;-84
2022/09/01 09:41:17;;;;;;;2.38;1.30;;;;;;;22.76;42.69;102245.66;5117527;28;20050;-84
2022/09/01 09:44:18;;;;;;;2.42;1.30;;;;;;;22.73;42.48;102248.31;5110955;28;20320;-83
2022/09/01 09:46:47;;;;;;;2.40;1.20;;;;;;;22.72;42.62;102246.56;5115066;28;20048;-83
2022/09/01 09:51:50;;;;;;;1.55;1.02;;;;;;;22.72;41.51;102234.31;5110914;28;20941;-83
2022/09/01 09:56:47;;;;;;;1.60;1.00;;;;;;;22.72;42.43;102228.22;5109899;28;20047;-81
2022/09/01 10:01:50;;;;;;;2.95;1.20;;;;;;;22.71;42.16;102224.72;5118527;28;20051;-80
2022/09/01 10:06:45;;;;;;;3.30;1.50;;;;;;;22.76;41.23;102225.53;5109240;28;20055;-81
2022/09/01 10:11:52;;;;;;;3.03;1.30;;;;;;;22.75;41.40;102226.41;5109027;28;20048;-80
2022/09/01 10:16:52;;;;;;;2.10;1.20;;;;;;;22.74;41.55;102222.06;5108520;28;21154;-80
2022/09/01 10:19:18;;;;;;;2.80;1.20;;;;;;;22.76;40.89;102219.44;5110232;28;20040;-79
2022/09/01 10:21:44;;;;;;;2.28;1.10;;;;;;;22.75;39.97;102221.16;5090539;28;20071;-79
2022/09/01 10:24:10;;;;;;;4.22;1.10;;;;;;;22.79;39.91;102219.38;5088701;28;20363;-80
2022/09/01 10:26:37;;;;;;;2.78;1.00;;;;;;;22.74;40.55;102223.81;5106180;28;20047;-79
2022/09/01 10:29:20;;;;;;;3.63;1.45;;;;;;;22.73;40.29;102220.34;5068727;28;1151829;-79
2022/09/01 10:31:46;;;;;;;3.55;1.30;;;;;;;22.78;38.35;102225.53;5092245;28;20067;-79
2022/09/01 10:34:16;;;;;;;3.88;1.10;;;;;;;22.77;39.17;102213.28;5075487;28;20342;-79
2022/09/01 10:36:43;;;;;;;3.22;1.10;;;;;;;22.76;39.12;102214.19;5090069;28;20059;-80
2022/09/01 10:39:14;;;;;;;4.03;1.15;;;;;;;22.72;40.36;102209.84;5110427;28;20067;-79
2022/09/01 10:41:53;;;;;;;3.08;1.33;;;;;;;22.70;40.22;102207.22;5089833;28;20100;-79
2022/09/01 10:46:45;;;;;;;4.25;1.10;;;;;;;22.73;40.07;102206.31;5099804;28;20043;-79
2022/09/01 10:51:45;;;;;;;2.63;1.45;;;;;;;22.75;38.83;102197.53;5107800;28;20044;-79
2022/09/01 10:56:52;;;;;;;3.05;1.10;;;;;;;22.75;38.33;102200.16;5107875;28;20048;-79
2022/09/01 11:01:45;;;;;;;3.10;1.15;;;;;;;22.75;38.45;102196.69;5111685;28;20051;-80
2022/09/01 11:06:52;;;;;;;3.28;1.05;;;;;;;22.75;39.14;102189.66;5111745;28;20124;-79
2022/09/01 11:11:55;;;;;;;2.08;1.00;;;;;;;22.75;39.26;102196.69;5111551;28;20761;-79
2022/09/01 11:14:25;;;;;;;4.78;1.05;;;;;;;22.77;37.85;102194.91;5113456;28;20039;-80
2022/09/01 11:17:11;;;;;;;1.60;0.90;;;;;;;22.80;36.47;102195.75;5095826;28;20058;-80
2022/09/01 11:19:57;;;;;;;3.22;1.02;;;;;;;22.82;36.68;102197.47;5093987;28;20048;-80
2022/09/01 11:22:34;;;;;;;2.60;0.93;;;;;;;22.83;36.89;102194.00;5095932;28;20044;-82
2022/09/01 11:27:47;;;;;;;2.58;1.17;;;;;;;22.82;35.83;102193.13;5092420;28;20120;-82
2022/09/01 11:32:49;;;;;;;2.65;1.02;;;;;;;22.79;36.15;102185.28;5093020;28;20056;-83
2022/09/01 11:35:17;;;;;;;2.90;1.05;;;;;;;22.82;36.42;102181.72;5091924;28;20048;-83
2022/09/01 11:37:47;;;;;;;2.10;1.10;;;;;;;22.85;35.54;102185.22;5091304;28;20054;-82
2022/09/01 11:42:45;;;;;;;2.42;1.10;;;;;;;22.82;36.36;102172.13;5091102;28;20444;-83
2022/09/01 11:47:49;;;;;;;1.98;1.00;;;;;;;22.77;37.76;102177.41;5090766;28;21303;-83
2022/09/01 11:53:02;;;;;;;1.73;0.98;;;;;;;22.83;36.12;102186.97;5111222;28;20056;-83
2022/09/01 11:55:40;;;;;;;1.80;1.00;;;;;;;22.83;36.46;102181.72;5093565;28;20063;-83
2022/09/01 11:58:10;;;;;;;6.82;1.00;;;;;;;22.84;36.75;102174.72;5094895;28;20044;-82
2022/09/01 12:00:39;;;;;;;1.75;1.02;;;;;;;22.82;37.41;102171.25;5092328;28;20135;-83
2022/09/01 12:05:49;;;;;;;3.83;0.90;;;;;;;22.86;36.84;102165.06;5120831;28;20036;-83
2022/09/01 12:08:17;;;;;;;2.67;0.98;;;;;;;22.91;35.91;102164.16;5087351;28;20050;-83
2022/09/01 12:10:44;;;;;;;2.15;0.90;;;;;;;22.89;36.51;102165.06;5077454;28;20138;-83
2022/09/01 12:16:02;;;;;;;1.90;1.00;;;;;;;22.89;35.30;102171.16;5105211;28;21249;-83
2022/09/01 12:18:34;;;;;;;2.50;1.00;;;;;;;22.92;35.33;102163.25;5093205;28;20142;-82
2022/09/01 12:21:02;;;;;;;3.25;1.10;;;;;;;22.90;35.82;102172.91;5113129;28;20036;-82
2022/09/01 12:23:29;;;;;;;6.55;1.20;;;;;;;22.93;35.43;102161.47;5092300;28;20052;-82
2022/09/01 12:25:57;;;;;;;3.05;1.10;;;;;;;22.92;35.21;102165.00;5094648;28;20039;-82
2022/09/01 12:28:25;;;;;;;2.45;0.90;;;;;;;22.93;35.65;102149.25;5093556;28;20047;-82
2022/09/01 12:30:52;;;;;;;2.95;1.05;;;;;;;22.96;34.58;102153.59;5076862;28;20039;-82
2022/09/01 12:33:19;;;;;;;3.55;1.00;;;;;;;22.94;35.13;102152.75;5112679;28;20052;-82
2022/09/01 12:35:45;;;;;;;3.63;0.90;;;;;;;22.93;35.32;102145.75;5091910;28;20378;-82
2022/09/01 12:40:47;;;;;;;1.88;0.90;;;;;;;23.00;35.98;102155.34;5111621;28;20787;-83
2022/09/01 12:45:46;;;;;;;2.22;0.95;;;;;;;22.98;35.19;102147.44;5111885;28;20043;-82
2022/09/01 12:50:45;;;;;;;;;;;;;;;22.97;35.37;102139.56;5111100;28;20051;-82
2022/09/01 12:53:16;;;;;;;3.53;1.02;;;;;;;23.01;34.74;102141.31;5093746;28;20269;-82
2022/09/01 12:56:03;;;;;;;3.22;1.00;;;;;;;22.98;35.15;102133.44;5091679;28;20067;-82
2022/09/01 12:58:29;;;;;;;1.75;0.95;;;;;;;23.02;35.79;102142.16;5091365;28;20094;-83
2022/09/01 13:00:57;;;;;;;2.83;0.90;;;;;;;23.05;35.05;102142.16;5076420;28;20043;-83
2022/09/01 13:03:24;;;;;;;5.13;1.20;;;;;;;23.05;35.31;102131.66;5093429;28;20130;-82
2022/09/01 13:05:52;;;;;;;3.20;0.90;;;;;;;23.03;35.37;102136.06;5060021;28;20051;-82
2022/09/01 13:08:20;;;;;;;1.92;1.00;;;;;;;23.10;34.03;102138.56;5094293;28;20051;-82
2022/09/01 13:10:49;;;;;;;2.88;0.90;;;;;;;23.08;34.37;102122.00;5092606;28;20035;-82
2022/09/01 13:13:16;;;;;;;1.58;0.90;;;;;;;23.08;34.93;102142.09;5112101;28;20489;-82
2022/09/01 13:15:49;;;;;;;4.82;1.10;;;;;;;23.06;34.93;102136.91;5092274;28;20243;-83
2022/09/01 13:18:16;;;;;;;2.25;1.00;;;;;;;23.09;34.88;102125.47;5093762;28;20043;-82
2022/09/01 13:20:42;;;;;;;3.78;1.00;;;;;;;23.10;34.38;102129.81;5092903;28;20101;-84
2022/09/01 13:23:08;;;;;;;4.05;1.15;;;;;;;23.05;35.06;102114.13;5060827;28;20048;-82
2022/09/01 13:25:34;;;;;;;2.60;1.00;;;;;;;23.09;35.27;102115.84;5092031;28;20055;-82
2022/09/01 13:28:01;;;;;;;3.47;1.10;;;;;;;23.09;35.20;102126.34;5076488;28;20101;-82
2022/09/01 13:30:28;;;;;;;3.25;0.95;;;;;;;23.11;35.05;102118.44;5108501;28;20538;-82
2022/09/01 13:32:55;;;;;;;1.17;0.77;;;;;;;23.09;35.39;102118.47;5093449;28;20462;-82
2022/09/01 13:35:23;;;;;;;1.40;0.93;;;;;;;23.08;34.62;102110.59;5092614;28;20043;-82
2022/09/01 13:37:49;;;;;;;5.03;1.48;;;;;;;23.16;34.57;102111.38;5075640;28;20100;-82
2022/09/01 13:42:47;;;;;;;2.22;0.93;;;;;;;23.16;34.99;102101.72;5109104;28;20174;-83
2022/09/01 13:45:15;;;;;;;1.85;1.00;;;;;;;23.17;34.92;102108.75;5093363;28;20499;-81
2022/09/01 13:47:42;;;;;;;2.60;1.73;;;;;;;23.16;35.05;102104.34;5091368;28;20058;-82
2022/09/01 13:50:09;;;;;;;2.47;1.13;;;;;;;23.15;34.88;102097.38;5093440;28;20048;-83
2022/09/01 13:52:36;;;;;;;1.73;1.08;;;;;;;23.17;34.91;102098.22;5093374;28;20118;-82
2022/09/01 13:55:02;;;;;;;1.83;0.82;;;;;;;23.23;35.43;102099.91;5079488;28;20043;-82
2022/09/01 13:57:29;;;;;;;1.25;0.80;;;;;;;23.20;35.83;102097.31;5095515;28;20054;-81
2022/09/01 13:59:57;;;;;;;3.92;1.13;;;;;;;23.23;35.52;102093.78;5095540;28;20044;-81
2022/09/01 14:02:22;;;;;;;1.52;0.90;;;;;;;23.25;34.95;102095.50;5102588;28;20047;-81
2022/09/01 14:04:47;;;;;;;1.60;0.90;;;;;;;23.23;35.51;102096.41;5087946;28;20053;-81
2022/09/01 14:07:14;;;;;;;5.65;1.10;;;;;;;23.27;34.62;102096.34;5091142;28;20058;-80
2022/09/01 14:09:40;;;;;;;2.97;0.90;;;;;;;23.27;34.60;102090.22;5086497;28;20917;-81
2022/09/01 14:12:05;;;;;;;2.20;1.13;;;;;;;23.26;34.99;102096.38;5090410;28;20139;-80
2022/09/01 14:14:33;;;;;;;1.73;0.88;;;;;;;23.27;34.67;102096.34;5091544;28;20059;-81
2022/09/01 14:16:58;;;;;;;2.88;1.23;;;;;;;23.28;35.39;102087.59;5092683;28;20051;-80
2022/09/01 14:19:24;;;;;;;3.45;1.08;;;;;;;23.26;35.07;102085.88;5091757;28;20042;-81
2022/09/01 14:21:49;;;;;;;2.08;1.00;;;;;;;23.25;35.05;102090.25;5092124;28;20084;-82
2022/09/01 14:24:18;;;;;;;3.20;0.95;;;;;;;23.29;35.14;102088.44;5071957;28;20044;-81
2022/09/01 14:26:44;;;;;;;1.00;0.70;;;;;;;23.28;35.69;102087.59;5074279;28;20054;-80
2022/09/01 14:29:10;;;;;;;5.95;1.38;;;;;;;23.31;36.21;102091.94;5075738;28;20416;-80
2022/09/01 14:31:36;;;;;;;4.93;1.38;;;;;;;23.32;35.20;102084.03;5073874;28;20036;-84